Terminal Aerodrome Forecast
Issued by NWS Pocatello, ID

Home | Current Version | Previous Version | Text Only | Print | Product List | Glossary On
Versions: 1 2 3 4 5 6 7 8 9 10 11 12 13 14 15 16
000
FTUS45 KPIH 020000 AAA
TAFPIH
TAF AMD
KPIH 020003Z 0200/0224 35015G25KT P6SM VCTS SCT100CB
     FM020100 VRB05KT P6SM VCTS FEW100CB SCT120
     FM020400 VRB05KT P6SM FEW120
     FM022000 VRB06KT P6SM VCTS FEW100CB SCT120=

USA.gov is the U.S. government's official web portal to all federal, state and local government web resources and services.